createdAt,value
2019-05-25T00:00:19.640Z,0.00
2019-05-25T00:01:19.584Z,0.00
2019-05-25T00:02:19.536Z,0.00
2019-05-25T00:03:19.498Z,0.00
2019-05-25T00:04:19.436Z,0.00
2019-05-25T00:05:19.379Z,0.00
2019-05-25T00:06:19.328Z,0.00
2019-05-25T00:07:19.278Z,0.00
2019-05-25T00:08:19.249Z,0.00
2019-05-25T00:09:19.184Z,0.00
2019-05-25T00:10:19.127Z,0.00
2019-05-25T00:11:19.075Z,0.00
2019-05-25T00:12:19.023Z,0.00
2019-05-25T00:13:19.001Z,0.00
2019-05-25T00:14:18.922Z,0.00
2019-05-25T00:15:18.874Z,0.00
2019-05-25T00:16:18.823Z,0.00
2019-05-25T00:17:18.775Z,0.00
2019-05-25T00:18:18.743Z,0.00
2019-05-25T00:19:18.669Z,0.00
2019-05-25T00:20:18.621Z,0.00
2019-05-25T00:21:18.569Z,0.00
2019-05-25T00:22:18.510Z,0.00
2019-05-25T00:23:18.491Z,0.00
2019-05-25T00:24:18.415Z,0.00
2019-05-25T00:25:18.369Z,0.00
2019-05-25T00:26:18.315Z,0.00
2019-05-25T00:27:18.261Z,0.00
2019-05-25T00:28:18.239Z,0.00
2019-05-25T00:29:18.164Z,0.00
2019-05-25T00:30:18.109Z,0.00
2019-05-25T00:31:18.060Z,0.00
2019-05-25T00:32:18.011Z,0.00
2019-05-25T00:33:17.981Z,0.00
2019-05-25T00:34:17.909Z,0.00
2019-05-25T00:35:17.854Z,0.00
2019-05-25T00:36:17.803Z,0.00
2019-05-25T00:37:17.752Z,0.00
2019-05-25T00:38:17.734Z,0.00
2019-05-25T00:39:17.651Z,0.00
2019-05-25T00:40:17.597Z,0.00
2019-05-25T00:41:17.546Z,0.00
2019-05-25T00:42:17.495Z,0.00
2019-05-25T00:43:17.470Z,0.00
2019-05-25T00:44:17.391Z,0.00
2019-05-25T00:45:17.340Z,0.00
2019-05-25T00:46:17.290Z,0.00
2019-05-25T00:47:17.239Z,0.00
2019-05-25T00:48:17.211Z,0.00
2019-05-25T00:49:17.142Z,0.00
2019-05-25T00:50:17.089Z,0.00
2019-05-25T00:51:17.041Z,0.00
2019-05-25T00:52:16.987Z,0.00
2019-05-25T00:53:16.963Z,0.00
2019-05-25T00:54:27.422Z,0.00
2019-05-25T00:55:16.831Z,0.00
2019-05-25T00:56:16.780Z,0.00
2019-05-25T00:57:16.730Z,0.00
2019-05-25T00:58:16.714Z,0.00
2019-05-25T00:59:16.627Z,0.00
2019-05-25T01:00:16.575Z,0.00
2019-05-25T01:01:16.538Z,0.00
2019-05-25T01:02:16.472Z,0.00
2019-05-25T01:03:16.498Z,0.00
2019-05-25T01:04:16.370Z,0.00
2019-05-25T01:05:16.321Z,0.00
2019-05-25T01:06:16.270Z,0.00
2019-05-25T01:07:16.219Z,0.00
2019-05-25T01:08:16.198Z,0.00
2019-05-25T01:09:16.139Z,0.00
2019-05-25T01:10:16.067Z,0.00
2019-05-25T01:11:16.009Z,0.00
2019-05-25T01:12:15.967Z,0.00
2019-05-25T01:13:15.905Z,0.00
2019-05-25T01:14:15.886Z,0.00
2019-05-25T01:15:15.816Z,0.00
2019-05-25T01:16:15.770Z,0.00
2019-05-25T01:17:15.704Z,0.00
2019-05-25T01:18:15.654Z,0.00
2019-05-25T01:19:15.629Z,0.00
2019-05-25T01:20:15.550Z,0.00
2019-05-25T01:21:15.499Z,0.00
2019-05-25T01:22:15.448Z,0.00
2019-05-25T01:23:15.406Z,0.00
2019-05-25T01:24:15.383Z,0.00
2019-05-25T01:25:15.298Z,0.00
2019-05-25T01:26:15.248Z,0.00
2019-05-25T01:27:15.193Z,0.00
2019-05-25T01:28:15.139Z,0.00
2019-05-25T01:29:15.121Z,0.00
2019-05-25T01:30:15.038Z,0.00
2019-05-25T01:31:15.000Z,0.00
2019-05-25T01:32:14.939Z,0.00
2019-05-25T01:33:14.883Z,0.00
2019-05-25T01:34:14.855Z,0.00
2019-05-25T01:35:14.780Z,0.00
2019-05-25T01:36:14.729Z,0.00
2019-05-25T01:37:14.682Z,0.00
2019-05-25T01:38:14.622Z,0.00
2019-05-25T01:39:14.603Z,0.00
2019-05-25T01:40:14.523Z,0.00
2019-05-25T01:41:14.475Z,0.00
2019-05-25T01:42:14.420Z,0.00
2019-05-25T01:43:14.371Z,0.00
2019-05-25T01:44:14.343Z,0.00
2019-05-25T01:45:14.266Z,0.00
2019-05-25T01:46:14.215Z,0.00
2019-05-25T01:47:14.161Z,0.00
2019-05-25T01:48:14.114Z,0.00
2019-05-25T01:49:14.087Z,0.00
2019-05-25T01:50:14.015Z,0.00
2019-05-25T01:51:13.958Z,0.00
2019-05-25T01:52:13.906Z,0.00
2019-05-25T01:53:13.902Z,0.00
2019-05-25T01:54:13.827Z,0.00
2019-05-25T01:55:13.756Z,0.00
2019-05-25T01:56:13.700Z,0.00
2019-05-25T01:57:13.651Z,0.00
2019-05-25T01:58:13.599Z,0.00
2019-05-25T01:59:13.571Z,0.00
2019-05-25T02:00:13.495Z,0.00
2019-05-25T02:01:13.444Z,0.00
2019-05-25T02:02:13.397Z,0.00
2019-05-25T02:03:13.341Z,0.00
2019-05-25T02:04:13.325Z,0.00
2019-05-25T02:05:13.308Z,0.00
2019-05-25T02:06:13.180Z,0.00
2019-05-25T02:07:13.131Z,0.00
2019-05-25T02:08:13.085Z,0.00
2019-05-25T02:09:13.058Z,0.00
2019-05-25T02:10:12.987Z,0.00
2019-05-25T02:11:12.923Z,0.00
2019-05-25T02:12:12.879Z,0.00
2019-05-25T02:13:12.823Z,0.00
2019-05-25T02:14:12.796Z,0.00
2019-05-25T02:15:12.721Z,0.00
2019-05-25T02:16:12.669Z,0.00
2019-05-25T02:17:12.618Z,0.00
2019-05-25T02:18:12.567Z,0.00
2019-05-25T02:19:12.538Z,0.00
2019-05-25T02:20:12.465Z,0.00
2019-05-25T02:21:12.420Z,0.00
2019-05-25T02:22:12.361Z,0.00
2019-05-25T02:23:12.307Z,0.00
2019-05-25T02:24:12.315Z,0.00
2019-05-25T02:25:18.248Z,0.00
2019-05-25T02:26:12.154Z,0.00
2019-05-25T02:27:12.106Z,0.00
2019-05-25T02:28:12.049Z,0.00
2019-05-25T02:29:11.997Z,0.00
2019-05-25T02:30:11.970Z,0.00
2019-05-25T02:31:11.890Z,0.00
2019-05-25T02:32:11.839Z,0.00
2019-05-25T02:33:11.789Z,0.00
2019-05-25T02:34:11.738Z,0.00
2019-05-25T02:35:11.705Z,0.00
2019-05-25T02:36:11.629Z,0.00
2019-05-25T02:37:11.587Z,0.00
2019-05-25T02:38:11.531Z,0.00
2019-05-25T02:39:11.476Z,0.00
2019-05-25T02:40:11.451Z,0.00
2019-05-25T02:41:11.379Z,0.00
2019-05-25T02:42:11.321Z,0.00
2019-05-25T02:43:11.270Z,0.00
2019-05-25T02:44:11.219Z,0.00
2019-05-25T02:45:11.188Z,4.00
2019-05-25T02:46:11.117Z,4.00
2019-05-25T02:47:11.067Z,0.00
2019-05-25T02:48:11.010Z,0.00
2019-05-25T02:49:10.962Z,4.00
2019-05-25T02:50:10.934Z,4.00
2019-05-25T02:51:10.859Z,4.00
2019-05-25T02:52:10.799Z,0.00
2019-05-25T02:53:10.752Z,4.00
2019-05-25T02:54:10.700Z,4.00
2019-05-25T02:55:10.670Z,4.00
2019-05-25T02:56:10.598Z,8.00
2019-05-25T02:57:10.545Z,8.00
2019-05-25T02:58:10.492Z,8.00
2019-05-25T02:59:10.437Z,8.00
2019-05-25T03:00:10.411Z,8.00
2019-05-25T03:01:10.338Z,8.00
2019-05-25T03:02:10.283Z,12.00
2019-05-25T03:03:10.234Z,12.00
2019-05-25T03:04:10.179Z,12.00
2019-05-25T03:05:10.153Z,16.00
2019-05-25T03:06:10.176Z,16.00
2019-05-25T03:07:10.024Z,16.00
2019-05-25T03:08:09.970Z,20.00
2019-05-25T03:09:09.923Z,24.00
2019-05-25T03:10:09.894Z,24.00
2019-05-25T03:11:09.818Z,28.00
2019-05-25T03:12:09.767Z,28.00
2019-05-25T03:13:09.714Z,32.00
2019-05-25T03:14:09.658Z,36.00
2019-05-25T03:15:09.633Z,36.00
2019-05-25T03:16:09.555Z,40.00
2019-05-25T03:17:09.507Z,44.00
2019-05-25T03:18:09.452Z,44.00
2019-05-25T03:19:09.409Z,48.00
2019-05-25T03:20:09.374Z,56.00
2019-05-25T03:21:09.303Z,60.00
2019-05-25T03:22:09.246Z,64.00
2019-05-25T03:23:09.202Z,64.00
2019-05-25T03:24:09.145Z,72.00
2019-05-25T03:25:09.114Z,72.00
2019-05-25T03:26:09.036Z,76.00
2019-05-25T03:27:08.980Z,80.00
2019-05-25T03:28:08.937Z,84.00
2019-05-25T03:29:08.878Z,88.00
2019-05-25T03:30:08.888Z,100.00
2019-05-25T03:31:08.777Z,108.00
2019-05-25T03:32:08.721Z,104.00
2019-05-25T03:33:08.671Z,108.00
2019-05-25T03:34:08.625Z,124.00
2019-05-25T03:35:08.587Z,132.00
2019-05-25T03:36:08.526Z,148.00
2019-05-25T03:37:08.470Z,152.00
2019-05-25T03:38:08.425Z,164.00
2019-05-25T03:39:08.357Z,168.00
2019-05-25T03:40:08.330Z,176.00
2019-05-25T03:41:08.259Z,176.00
2019-05-25T03:42:08.203Z,172.00
2019-05-25T03:43:08.155Z,188.00
2019-05-25T03:44:08.100Z,196.00
2019-05-25T03:45:08.076Z,200.00
2019-05-25T03:46:07.996Z,196.00
2019-05-25T03:47:07.942Z,208.00
2019-05-25T03:48:07.895Z,220.00
2019-05-25T03:49:07.852Z,212.00
2019-05-25T03:50:07.816Z,220.00
2019-05-25T03:51:07.737Z,224.00
2019-05-25T03:52:07.682Z,232.00
2019-05-25T03:53:07.630Z,244.00
2019-05-25T03:54:07.578Z,264.00
2019-05-25T03:55:07.566Z,240.00
2019-05-25T03:56:07.479Z,228.00
2019-05-25T03:57:07.421Z,240.00
2019-05-25T03:58:07.375Z,260.00
2019-05-25T03:59:07.323Z,292.00
2019-05-25T04:00:07.269Z,352.00
2019-05-25T04:01:07.248Z,328.00
2019-05-25T04:02:07.160Z,320.00
2019-05-25T04:03:07.112Z,320.00
2019-05-25T04:04:07.058Z,324.00
2019-05-25T04:05:07.012Z,316.00
2019-05-25T04:06:06.979Z,328.00
2019-05-25T04:07:06.903Z,340.00
2019-05-25T04:08:06.852Z,352.00
2019-05-25T04:09:06.800Z,300.00
2019-05-25T04:10:06.747Z,340.00
2019-05-25T04:11:06.717Z,416.00
2019-05-25T04:12:06.639Z,376.00
2019-05-25T04:13:06.592Z,348.00
2019-05-25T04:14:06.537Z,384.00
2019-05-25T04:15:06.493Z,364.00
2019-05-25T04:16:06.460Z,356.00
2019-05-25T04:17:06.387Z,376.00
2019-05-25T04:18:06.334Z,364.00
2019-05-25T04:19:06.281Z,432.00
2019-05-25T04:20:06.231Z,480.00
2019-05-25T04:21:06.212Z,464.00
2019-05-25T04:22:06.125Z,472.00
2019-05-25T04:23:06.075Z,400.00
2019-05-25T04:24:06.026Z,392.00
2019-05-25T04:25:05.974Z,400.00
2019-05-25T04:26:21.537Z,400.00
2019-05-25T04:27:05.867Z,444.00
2019-05-25T04:28:05.818Z,480.00
2019-05-25T04:29:05.765Z,448.00
2019-05-25T04:30:05.713Z,460.00
2019-05-25T04:31:05.686Z,632.00
2019-05-25T04:32:05.615Z,516.00
2019-05-25T04:33:05.563Z,596.00
2019-05-25T04:34:05.543Z,552.00
2019-05-25T04:35:05.458Z,492.00
2019-05-25T04:36:05.426Z,548.00
2019-05-25T04:37:05.352Z,556.00
2019-05-25T04:38:05.303Z,472.00
2019-05-25T04:39:05.250Z,404.00
2019-05-25T04:40:05.199Z,400.00
2019-05-25T04:41:05.173Z,432.00
2019-05-25T04:42:05.102Z,444.00
2019-05-25T04:43:05.038Z,508.00
2019-05-25T04:44:04.993Z,572.00
2019-05-25T04:45:04.943Z,572.00
2019-05-25T04:46:04.907Z,532.00
2019-05-25T04:47:04.833Z,652.00
2019-05-25T04:48:04.781Z,640.00
2019-05-25T04:49:04.752Z,516.00
2019-05-25T04:50:04.689Z,488.00
2019-05-25T04:51:04.655Z,496.00
2019-05-25T04:52:04.583Z,624.00
2019-05-25T04:53:04.540Z,656.00
2019-05-25T04:54:04.474Z,644.00
2019-05-25T04:55:04.422Z,644.00
2019-05-25T04:56:04.398Z,668.00
2019-05-25T04:57:04.593Z,700.00
2019-05-25T04:58:04.273Z,676.00
2019-05-25T04:59:04.220Z,732.00
2019-05-25T05:00:04.171Z,756.00
2019-05-25T05:01:04.169Z,808.00
2019-05-25T05:02:04.063Z,752.00
2019-05-25T05:03:04.023Z,740.00
2019-05-25T05:04:03.959Z,680.00
2019-05-25T05:05:03.916Z,660.00
2019-05-25T05:06:03.884Z,864.00
2019-05-25T05:07:03.810Z,968.00
2019-05-25T05:08:03.759Z,1076.00
2019-05-25T05:09:03.706Z,1080.00
2019-05-25T05:10:03.658Z,1112.00
2019-05-25T05:11:03.634Z,1128.00
2019-05-25T05:12:03.552Z,1144.00
2019-05-25T05:13:03.509Z,1220.00
2019-05-25T05:14:03.453Z,1376.00
2019-05-25T05:15:03.411Z,1592.00
2019-05-25T05:16:03.394Z,1616.00
2019-05-25T05:17:03.320Z,1432.00
2019-05-25T05:18:03.256Z,1460.00
2019-05-25T05:19:03.206Z,1560.00
2019-05-25T05:20:03.154Z,1548.00
2019-05-25T05:21:03.099Z,1556.00
2019-05-25T05:22:05.789Z,1692.00
2019-05-25T05:23:02.999Z,1724.00
2019-05-25T05:24:02.936Z,1536.00
2019-05-25T05:25:02.892Z,1500.00
2019-05-25T05:26:02.832Z,1680.00
2019-05-25T05:27:02.820Z,1520.00
2019-05-25T05:28:02.738Z,1516.00
2019-05-25T05:29:02.687Z,1436.00
2019-05-25T05:30:02.635Z,1356.00
2019-05-25T05:31:02.585Z,1196.00
2019-05-25T05:32:02.560Z,1188.00
2019-05-25T05:33:02.483Z,1172.00
2019-05-25T05:34:02.433Z,1204.00
2019-05-25T05:35:02.380Z,1220.00
2019-05-25T05:36:02.331Z,1252.00
2019-05-25T05:37:02.341Z,1296.00
2019-05-25T05:38:02.230Z,1252.00
2019-05-25T05:39:02.173Z,1152.00
2019-05-25T05:40:02.175Z,1128.00
2019-05-25T05:41:02.075Z,1160.00
2019-05-25T05:42:02.058Z,1144.00
2019-05-25T05:43:01.973Z,1144.00
2019-05-25T05:44:01.929Z,1104.00
2019-05-25T05:45:01.874Z,1100.00
2019-05-25T05:46:01.822Z,1104.00
2019-05-25T05:47:01.795Z,1236.00
2019-05-25T05:48:01.717Z,1268.00
2019-05-25T05:49:01.672Z,1244.00
2019-05-25T05:50:01.616Z,1352.00
2019-05-25T05:51:01.568Z,1292.00
2019-05-25T05:52:01.538Z,1332.00
2019-05-25T05:53:01.463Z,1488.00
2019-05-25T05:54:01.414Z,1416.00
2019-05-25T05:55:01.365Z,1352.00
2019-05-25T05:56:01.303Z,1416.00
2019-05-25T05:57:11.686Z,1452.00
2019-05-25T05:58:01.208Z,1468.00
2019-05-25T05:59:01.159Z,1520.00
2019-05-25T06:00:01.114Z,1576.00
2019-05-25T06:01:01.065Z,1544.00
2019-05-25T06:02:01.124Z,1520.00
2019-05-25T06:03:00.953Z,1476.00
2019-05-25T06:04:00.904Z,1364.00
2019-05-25T06:05:00.857Z,1324.00
2019-05-25T06:06:00.808Z,1332.00
2019-05-25T06:07:00.801Z,1392.00
2019-05-25T06:08:00.746Z,1316.00
2019-05-25T06:09:00.654Z,1176.00
2019-05-25T06:10:00.600Z,1092.00
2019-05-25T06:11:00.549Z,1064.00
2019-05-25T06:12:00.531Z,1080.00
2019-05-25T06:13:00.450Z,1052.00
2019-05-25T06:14:00.398Z,1116.00
2019-05-25T06:15:00.351Z,1204.00
2019-05-25T06:16:00.300Z,1248.00
2019-05-25T06:17:00.272Z,1252.00
2019-05-25T06:18:00.202Z,1272.00
2019-05-25T06:19:00.145Z,1204.00
2019-05-25T06:20:00.094Z,1172.00
2019-05-25T06:21:00.061Z,1240.00
2019-05-25T06:22:00.075Z,1164.00
2019-05-25T06:22:59.942Z,1216.00
2019-05-25T06:23:59.893Z,1100.00
2019-05-25T06:24:59.844Z,1232.00
2019-05-25T06:25:59.789Z,1132.00
2019-05-25T06:26:59.774Z,1084.00
2019-05-25T06:27:59.689Z,1068.00
2019-05-25T06:28:59.639Z,1064.00
2019-05-25T06:29:59.585Z,1176.00
2019-05-25T06:30:59.540Z,1240.00
2019-05-25T06:31:59.489Z,1192.00
2019-05-25T06:32:59.470Z,1232.00
2019-05-25T06:33:59.386Z,1260.00
2019-05-25T06:34:59.329Z,1380.00
2019-05-25T06:35:59.285Z,1420.00
2019-05-25T06:36:59.233Z,1420.00
2019-05-25T06:37:59.206Z,1536.00
2019-05-25T06:38:59.132Z,1676.00
2019-05-25T06:39:59.081Z,1848.00
2019-05-25T06:40:59.035Z,1860.00
2019-05-25T06:41:58.984Z,1668.00
2019-05-25T06:42:58.958Z,1672.00
2019-05-25T06:43:58.877Z,1744.00
2019-05-25T06:44:58.826Z,1736.00
2019-05-25T06:45:58.778Z,1668.00
2019-05-25T06:46:58.733Z,1608.00
2019-05-25T06:47:58.701Z,1504.00
2019-05-25T06:48:58.628Z,1424.00
2019-05-25T06:49:58.590Z,1496.00
2019-05-25T06:50:58.518Z,1536.00
2019-05-25T06:51:58.470Z,1524.00
2019-05-25T06:52:58.452Z,1792.00
2019-05-25T06:53:58.375Z,1956.00
2019-05-25T06:54:58.319Z,1816.00
2019-05-25T06:55:58.268Z,1832.00
2019-05-25T06:56:58.229Z,1752.00
2019-05-25T06:57:58.199Z,1824.00
2019-05-25T06:58:58.111Z,1860.00
2019-05-25T06:59:58.072Z,1884.00
2019-05-25T07:00:58.017Z,1724.00
2019-05-25T07:01:57.970Z,1704.00
2019-05-25T07:02:57.940Z,1940.00
2019-05-25T07:03:57.871Z,2152.00
2019-05-25T07:04:57.817Z,2216.00
2019-05-25T07:05:57.791Z,1896.00
2019-05-25T07:06:57.716Z,1676.00
2019-05-25T07:07:57.693Z,1728.00
2019-05-25T07:08:57.614Z,1716.00
2019-05-25T07:09:57.561Z,1736.00
2019-05-25T07:10:57.515Z,1740.00
2019-05-25T07:11:57.467Z,1768.00
2019-05-25T07:12:57.437Z,1720.00
2019-05-25T07:13:57.359Z,1736.00
2019-05-25T07:14:57.310Z,1680.00
2019-05-25T07:15:57.258Z,1660.00
2019-05-25T07:16:57.209Z,1616.00
2019-05-25T07:17:57.182Z,1560.00
2019-05-25T07:18:57.106Z,1376.00
2019-05-25T07:19:57.081Z,1408.00
2019-05-25T07:20:57.005Z,1388.00
2019-05-25T07:21:56.974Z,1516.00
2019-05-25T07:22:56.938Z,1528.00
2019-05-25T07:23:56.856Z,1244.00
2019-05-25T07:24:56.805Z,1124.00
2019-05-25T07:25:56.751Z,1072.00
2019-05-25T07:26:56.714Z,1288.00
2019-05-25T07:27:59.999Z,1528.00
2019-05-25T07:28:56.600Z,1684.00
2019-05-25T07:29:56.549Z,1676.00
2019-05-25T07:30:56.498Z,1592.00
2019-05-25T07:31:56.447Z,1708.00
2019-05-25T07:32:56.425Z,1572.00
2019-05-25T07:33:56.354Z,1552.00
2019-05-25T07:34:56.300Z,1616.00
2019-05-25T07:35:56.241Z,1808.00
2019-05-25T07:36:56.196Z,2024.00
2019-05-25T07:37:56.171Z,2128.00
2019-05-25T07:38:56.095Z,2224.00
2019-05-25T07:39:56.044Z,1928.00
2019-05-25T07:40:55.996Z,1968.00
2019-05-25T07:41:55.946Z,1948.00
2019-05-25T07:42:55.917Z,1936.00
2019-05-25T07:43:55.842Z,2044.00
2019-05-25T07:44:55.793Z,2232.00
2019-05-25T07:45:55.745Z,2292.00
2019-05-25T07:46:55.692Z,2564.00
2019-05-25T07:47:55.677Z,2888.00
2019-05-25T07:48:55.593Z,3016.00
2019-05-25T07:49:55.540Z,3408.00
2019-05-25T07:50:55.487Z,3996.00
2019-05-25T07:51:55.438Z,3932.00
2019-05-25T07:52:55.383Z,4144.00
2019-05-25T07:53:55.360Z,4020.00
2019-05-25T07:54:55.286Z,4308.00
2019-05-25T07:55:55.236Z,4404.00
2019-05-25T07:56:55.185Z,4808.00
2019-05-25T07:57:55.136Z,4756.00
2019-05-25T07:58:55.107Z,4020.00
2019-05-25T07:59:55.032Z,3304.00
2019-05-25T08:00:54.977Z,3032.00
2019-05-25T08:01:54.968Z,3032.00
2019-05-25T08:02:54.914Z,3236.00
2019-05-25T08:03:54.843Z,3180.00
2019-05-25T08:04:54.779Z,3216.00
2019-05-25T08:05:54.733Z,3176.00
2019-05-25T08:06:54.735Z,3628.00
2019-05-25T08:07:54.628Z,3408.00
2019-05-25T08:08:54.609Z,3460.00
2019-05-25T08:09:54.537Z,4348.00
2019-05-25T08:10:54.495Z,4512.00
2019-05-25T08:11:54.443Z,3736.00
2019-05-25T08:12:54.419Z,3568.00
2019-05-25T08:13:54.355Z,3552.00
2019-05-25T08:14:54.273Z,2848.00
2019-05-25T08:15:54.231Z,2708.00
2019-05-25T08:16:54.180Z,2616.00
2019-05-25T08:17:54.129Z,3072.00
2019-05-25T08:18:54.100Z,3720.00
2019-05-25T08:19:54.024Z,3400.00
2019-05-25T08:20:53.977Z,2652.00
2019-05-25T08:21:53.926Z,2776.00
2019-05-25T08:22:53.883Z,3436.00
2019-05-25T08:23:53.856Z,4024.00
2019-05-25T08:24:53.778Z,3520.00
2019-05-25T08:25:53.727Z,3204.00
2019-05-25T08:26:53.674Z,3300.00
2019-05-25T08:27:53.625Z,3128.00
2019-05-25T08:28:53.598Z,2980.00
2019-05-25T08:29:53.526Z,3040.00
2019-05-25T08:30:53.543Z,3072.00
2019-05-25T08:31:53.428Z,3500.00
2019-05-25T08:32:53.382Z,3916.00
2019-05-25T08:33:53.349Z,4072.00
2019-05-25T08:34:53.279Z,4096.00
2019-05-25T08:35:53.226Z,4088.00
2019-05-25T08:36:53.175Z,4312.00
2019-05-25T08:37:53.127Z,4456.00
2019-05-25T08:38:54.915Z,4700.00
2019-05-25T08:39:53.021Z,5060.00
2019-05-25T08:40:53.049Z,5300.00
2019-05-25T08:41:52.927Z,5296.00
2019-05-25T08:42:52.887Z,4632.00
2019-05-25T08:43:52.848Z,4192.00
2019-05-25T08:44:52.778Z,4028.00
2019-05-25T08:45:52.729Z,4024.00
2019-05-25T08:46:55.303Z,4256.00
2019-05-25T08:47:52.630Z,4444.00
2019-05-25T08:48:52.608Z,4816.00
2019-05-25T08:49:52.536Z,5096.00
2019-05-25T08:50:52.474Z,5680.00
2019-05-25T08:51:54.908Z,5416.00
2019-05-25T08:52:52.373Z,5856.00
2019-05-25T08:53:52.354Z,6200.00
2019-05-25T08:54:52.278Z,5852.00
2019-05-25T08:55:52.227Z,5744.00
2019-05-25T08:56:52.180Z,5752.00
2019-05-25T08:57:52.128Z,5564.00
2019-05-25T08:58:55.379Z,5536.00
2019-05-25T08:59:52.030Z,5584.00
2019-05-25T09:00:51.978Z,6264.00
2019-05-25T09:01:51.927Z,6064.00
2019-05-25T09:02:51.875Z,6120.00
2019-05-25T09:03:51.851Z,5524.00
2019-05-25T09:04:51.782Z,5420.00
2019-05-25T09:05:51.733Z,5304.00
2019-05-25T09:06:51.683Z,5300.00
2019-05-25T09:07:51.631Z,5368.00
2019-05-25T09:08:51.619Z,4936.00
2019-05-25T09:09:51.528Z,4732.00
2019-05-25T09:10:51.482Z,4404.00
2019-05-25T09:11:51.433Z,3612.00
2019-05-25T09:12:51.451Z,3344.00
2019-05-25T09:13:51.346Z,3964.00
2019-05-25T09:14:51.362Z,4616.00
2019-05-25T09:15:51.236Z,6640.00
2019-05-25T09:16:51.270Z,5716.00
2019-05-25T09:17:51.358Z,6088.00
2019-05-25T09:18:51.092Z,5384.00
2019-05-25T09:19:51.307Z,4944.00
2019-05-25T09:20:50.987Z,4660.00
2019-05-25T09:22:02.165Z,4844.00
2019-05-25T09:22:50.888Z,5076.00
2019-05-25T09:23:50.855Z,5412.00
2019-05-25T09:24:50.813Z,6172.00
2019-05-25T09:25:50.744Z,5916.00
2019-05-25T09:26:50.694Z,5420.00
2019-05-25T09:27:50.639Z,5380.00
2019-05-25T09:29:03.439Z,4704.00
2019-05-25T09:29:50.564Z,2816.00
2019-05-25T09:30:50.494Z,2732.00
2019-05-25T09:31:50.442Z,2920.00
2019-05-25T09:32:50.550Z,3972.00
2019-05-25T09:33:50.350Z,5652.00
2019-05-25T09:34:50.323Z,5300.00
2019-05-25T09:35:50.252Z,3428.00
2019-05-25T09:36:50.200Z,3268.00
2019-05-25T09:37:50.149Z,3544.00
2019-05-25T09:38:50.100Z,3648.00
2019-05-25T09:39:50.083Z,4956.00
2019-05-25T09:40:49.999Z,6104.00
2019-05-25T09:41:49.945Z,6196.00
2019-05-25T09:42:50.036Z,6648.00
2019-05-25T09:43:49.853Z,7892.00
2019-05-25T09:44:49.825Z,7500.00
2019-05-25T09:45:49.756Z,5112.00
2019-05-25T09:46:49.707Z,4252.00
2019-05-25T09:47:49.658Z,3124.00
2019-05-25T09:48:49.604Z,4028.00
2019-05-25T09:49:49.585Z,7520.00
2019-05-25T09:50:49.509Z,7228.00
2019-05-25T09:51:49.461Z,5680.00
2019-05-25T09:52:49.415Z,3484.00
2019-05-25T09:53:49.363Z,4040.00
2019-05-25T09:54:51.336Z,3752.00
2019-05-25T09:55:49.265Z,3992.00
2019-05-25T09:56:49.259Z,4844.00
2019-05-25T09:57:49.169Z,5160.00
2019-05-25T09:58:49.121Z,3348.00
2019-05-25T09:59:49.090Z,3016.00
2019-05-25T10:00:49.026Z,2572.00
2019-05-25T10:01:48.973Z,2360.00
2019-05-25T10:02:48.946Z,2256.00
2019-05-25T10:03:48.875Z,2348.00
2019-05-25T10:04:48.864Z,4528.00
2019-05-25T10:05:48.779Z,5036.00
2019-05-25T10:06:48.734Z,3920.00
2019-05-25T10:07:48.685Z,2548.00
2019-05-25T10:08:48.642Z,3456.00
2019-05-25T10:09:48.618Z,1968.00
2019-05-25T10:10:48.541Z,2240.00
2019-05-25T10:11:48.489Z,3184.00
2019-05-25T10:12:48.452Z,4672.00
2019-05-25T10:13:48.396Z,5084.00
2019-05-25T10:14:48.369Z,6464.00
2019-05-25T10:15:48.291Z,4900.00
2019-05-25T10:16:48.242Z,4304.00
2019-05-25T10:17:48.195Z,4384.00
2019-05-25T10:18:48.148Z,4920.00
2019-05-25T10:19:48.117Z,3980.00
2019-05-25T10:20:48.045Z,4408.00
2019-05-25T10:21:48.001Z,4940.00
2019-05-25T10:22:47.950Z,4792.00
2019-05-25T10:23:47.895Z,5340.00
2019-05-25T10:24:47.881Z,5920.00
2019-05-25T10:25:47.802Z,6112.00
2019-05-25T10:26:47.759Z,6072.00
2019-05-25T10:27:47.706Z,4936.00
2019-05-25T10:28:47.660Z,4028.00
2019-05-25T10:29:47.639Z,3684.00
2019-05-25T10:30:47.560Z,3660.00
2019-05-25T10:31:47.525Z,5260.00
2019-05-25T10:32:47.464Z,6584.00
2019-05-25T10:33:47.419Z,6992.00
2019-05-25T10:34:47.391Z,6172.00
2019-05-25T10:35:47.342Z,5868.00
2019-05-25T10:36:47.271Z,6448.00
2019-05-25T10:37:47.234Z,7268.00
2019-05-25T10:38:47.180Z,7712.00
2019-05-25T10:39:47.131Z,7312.00
2019-05-25T10:40:47.102Z,5832.00
2019-05-25T10:41:47.031Z,4620.00
2019-05-25T10:42:46.982Z,4828.00
2019-05-25T10:43:46.936Z,5736.00
2019-05-25T10:44:46.893Z,6784.00
2019-05-25T10:45:46.864Z,6952.00
2019-05-25T10:46:46.795Z,7512.00
2019-05-25T10:47:46.742Z,8208.00
2019-05-25T10:48:46.703Z,8516.00
2019-05-25T10:49:46.644Z,7964.00
2019-05-25T10:50:46.622Z,7524.00
2019-05-25T10:51:46.553Z,6388.00
2019-05-25T10:52:46.507Z,5720.00
2019-05-25T10:53:46.449Z,5308.00
2019-05-25T10:54:46.411Z,5336.00
2019-05-25T10:55:46.382Z,6444.00
2019-05-25T10:56:46.313Z,7472.00
2019-05-25T10:57:46.269Z,7884.00
2019-05-25T10:58:46.219Z,8312.00
2019-05-25T10:59:52.788Z,8012.00
2019-05-25T11:00:46.146Z,7052.00
2019-05-25T11:01:46.077Z,6168.00
2019-05-25T11:02:46.031Z,5660.00
2019-05-25T11:03:45.980Z,5932.00
2019-05-25T11:04:45.929Z,7076.00
2019-05-25T11:05:45.904Z,6208.00
2019-05-25T11:06:45.837Z,5756.00
2019-05-25T11:07:45.791Z,6532.00
2019-05-25T11:08:45.741Z,7356.00
2019-05-25T11:09:45.692Z,8008.00
2019-05-25T11:10:45.669Z,7424.00
2019-05-25T11:11:45.597Z,7008.00
2019-05-25T11:12:45.549Z,6748.00
2019-05-25T11:13:45.500Z,8388.00
2019-05-25T11:14:45.455Z,8196.00
2019-05-25T11:15:45.434Z,6872.00
2019-05-25T11:16:45.360Z,6228.00
2019-05-25T11:17:45.316Z,5652.00
2019-05-25T11:18:45.264Z,5652.00
2019-05-25T11:19:45.213Z,5928.00
2019-05-25T11:20:45.188Z,5372.00
2019-05-25T11:21:45.114Z,4368.00
2019-05-25T11:22:45.075Z,4760.00
2019-05-25T11:23:45.020Z,5656.00
2019-05-25T11:24:44.972Z,7540.00
2019-05-25T11:25:44.947Z,8448.00
2019-05-25T11:26:44.878Z,8088.00
2019-05-25T11:27:44.832Z,7540.00
2019-05-25T11:28:44.790Z,6336.00
2019-05-25T11:29:44.736Z,6412.00
2019-05-25T11:30:44.715Z,5848.00
2019-05-25T11:31:54.040Z,5448.00
2019-05-25T11:32:44.590Z,5652.00
2019-05-25T11:33:44.544Z,5888.00
2019-05-25T11:34:44.499Z,7132.00
2019-05-25T11:35:44.477Z,7960.00
2019-05-25T11:36:44.400Z,8188.00
2019-05-25T11:37:44.360Z,6888.00
2019-05-25T11:38:44.319Z,5768.00
2019-05-25T11:39:44.258Z,6504.00
2019-05-25T11:40:44.231Z,7544.00
2019-05-25T11:41:44.165Z,7092.00
2019-05-25T11:42:44.119Z,6596.00
2019-05-25T11:43:44.069Z,7612.00
2019-05-25T11:44:44.025Z,7396.00
2019-05-25T11:45:45.463Z,7340.00
2019-05-25T11:46:43.927Z,6520.00
2019-05-25T11:47:43.871Z,5884.00
2019-05-25T11:48:43.837Z,6796.00
2019-05-25T11:49:43.780Z,6768.00
2019-05-25T11:50:43.761Z,6772.00
2019-05-25T11:51:43.713Z,7100.00
2019-05-25T11:52:43.665Z,8196.00
2019-05-25T11:53:43.595Z,8472.00
2019-05-25T11:54:43.542Z,8580.00
2019-05-25T11:55:43.511Z,7140.00
2019-05-25T11:56:43.469Z,7236.00
2019-05-25T11:57:43.402Z,7448.00
2019-05-25T11:58:47.484Z,7900.00
2019-05-25T11:59:43.303Z,6928.00
2019-05-25T12:00:43.253Z,5524.00
2019-05-25T12:01:43.238Z,5964.00
2019-05-25T12:02:43.161Z,6492.00
2019-05-25T12:03:43.116Z,6164.00
2019-05-25T12:04:43.066Z,6704.00
2019-05-25T12:05:43.014Z,6804.00
2019-05-25T12:06:42.993Z,6328.00
2019-05-25T12:07:44.640Z,6544.00
2019-05-25T12:08:42.877Z,6272.00
2019-05-25T12:09:42.835Z,5080.00
2019-05-25T12:10:42.779Z,5160.00
2019-05-25T12:11:42.755Z,6252.00
2019-05-25T12:12:42.686Z,5572.00
2019-05-25T12:13:42.639Z,5144.00
2019-05-25T12:14:42.589Z,4816.00
2019-05-25T12:15:42.541Z,4356.00
2019-05-25T12:16:42.523Z,4232.00
2019-05-25T12:17:42.438Z,4528.00
2019-05-25T12:18:42.399Z,4788.00
2019-05-25T12:19:42.349Z,4760.00
2019-05-25T12:20:42.822Z,5428.00
2019-05-25T12:21:42.274Z,6432.00
2019-05-25T12:22:42.209Z,5948.00
2019-05-25T12:23:42.162Z,6000.00
2019-05-25T12:24:42.107Z,5792.00
2019-05-25T12:25:42.060Z,6328.00
2019-05-25T12:26:42.039Z,6536.00